Terminal Aerodrome Forecast
Issued by NWS

Home | Current Version | Previous Version | Text Only | Print | Product List | Glossary On
Versions: 1 2 3 4 5 6 7 8 9 10 11 12 13 14
000
FTUS45 KABQ 262320
TAFGUP
TAF
KGUP 262320Z 2700/2724 26011KT P6SM VCSH BKN090
      TEMPO 2701/2703 VRB15G25KT 6SM -TSRA BKN080CB
     FM270300 05006KT P6SM VCSH BKN080
     FM270600 VRB03KT P6SM SCT120
     FM271700 25006KT P6SM SCT080=

USA.gov is the U.S. government's official web portal to all federal, state and local government web resources and services.